This is the latest recevied weather packets stored in our database for station/object F4CYQ-10. If no packets are shown the sender has not sent any weather packets the latest 10 day(s).
| Time | Temp. | Humidity | Pressure | Rain* | Wind** | Luminosity | Snow |
|---|---|---|---|---|---|---|---|
| 1777620430 | 18.33° C | 57% | 1021.8 hPa | - | - | - | - |
| 1777619529 | 20° C | 55% | 1021.8 hPa | - | - | - | - |
| 1777619275 | 19.44° C | 55% | 1021.8 hPa | - | - | - | - |
| 1777618375 | 19.44° C | 55% | 1021.6 hPa | - | - | - | - |
| 1777617474 | 19.44° C | 55% | 1021.6 hPa | - | - | - | - |
| 1777616572 | -5° C | 100% | 4.8 hPa | - | - | - | - |
| 1777616276 | 18.89° C | 54% | 1021.5 hPa | - | - | - | - |
| 1777615375 | 18.33° C | 55% | 1021.4 hPa | - | - | - | - |
| 1777614474 | 18.89° C | 55% | 1021.4 hPa | - | - | - | - |
| 1777613573 | 18.89° C | 55% | 1021.3 hPa | - | - | - | - |
| 1777613216 | 18.89° C | 55% | 1021.2 hPa | - | - | - | - |
| 1777612315 | 18.89° C | 55% | 1021.3 hPa | - | - | - | - |
| 1777611413 | 18.89° C | 55% | 1021.3 hPa | - | - | - | - |
| 1777610512 | 19.44° C | 55% | 1020.9 hPa | - | - | - | - |
| 1777610163 | 20° C | 55% | 1020.9 hPa | - | - | - | - |
| 1777609262 | 19.44° C | 55% | 1020.9 hPa | - | - | - | - |
| 1777608361 | 20.56° C | 55% | 1021.1 hPa | - | - | - | - |
| 1777607460 | 20.56° C | 55% | 1021.1 hPa | - | - | - | - |
| 1777607055 | 18.89° C | 55% | 1021.2 hPa | - | - | - | - |
| 1777606155 | 18.89° C | 55% | 1021 hPa | - | - | - | - |
| 1777605252 | 18.89° C | 55% | 1020.9 hPa | - | - | - | - |
| 1777604351 | 19.44° C | 55% | 1020.8 hPa | - | - | - | - |
| 1777603761 | 20° C | 55% | 1020.8 hPa | - | - | - | - |
| 1777602860 | 20° C | 55% | 1020.8 hPa | - | - | - | - |
| 1777601959 | 20.56° C | 55% | 1020.8 hPa | - | - | - | - |
* Rain since midnight (hover to see other rain measurements)
** Current wind speed in m/s (hover to see current wind gust speed)